LiveATC.Net - Listen to live air traffic control over the Internet! Contact for advertising information

ICAO: KESN  IATA: ESN   Airport: Easton/Newnam Field Airport
City: Easton   State/Province: Maryland
Country: United States   Continent: North America
KESN METAR Weather: KESN 291145Z 05005KT 3SM +DZ OVC005 10/10 A3022
KESN Flight Activity (FlightAware)
KESN Airport Info   (AirNav) (iFlightPlanner)
KESN VFR Sectional Chart   (iFlightPlanner) 
KESN IFR Low Chart   (iFlightPlanner) 
KESN Gnd/Twr
Feed Status: UP   Listeners: 2
Listen right in your browser - requires Flash (in browser, requires Flash)
Click here to listen with your own player (launches your MP3 player)
KESN Gnd/Twr Audio Archives
Easton Ground119.075
Easton Tower118.525


Unauthorized use prohibited. See Terms of Service

Find LiveATC Audio Streams

Airport/ARTCC Code

(e.g., 124.400, 128.75)
Site-wide search

Browse LiveATC Feeds
LiveATC Coverage Map
Top 50 LiveATC Feeds
Bad Weather Areas

Offer a LiveATC Feed
Press Inquiries

LiveATC on iPhone
LiveATC on Android

Windows Phone
Windows 8/10

LiveATC Mobile
(Mobile browser)

ATC Audio Archives
Interesting Recordings

LiveATC Forums

Home Page
Make a Donation
LiveATC Bookstore

Terms of Use
Privacy Policy

ATC/Radar Sites
U.S. ARTCC Freqs
Canadian Air Freqs


FAA Airport Status
Nat'l Airspace Status
Arrival Demand Charts

Server Software By:

Please make a donation to help us keep growing!